createdAt,value
2018-07-04T00:01:14.295Z,71.90
2018-07-04T00:03:54.205Z,71.60
2018-07-04T00:06:33.874Z,71.70
2018-07-04T00:09:13.590Z,72.50
2018-07-04T00:11:53.503Z,72.70
2018-07-04T00:14:33.432Z,72.70
2018-07-04T00:17:13.282Z,73.90
2018-07-04T00:19:53.129Z,72.20
2018-07-04T00:22:33.007Z,72.20
2018-07-04T00:25:12.862Z,72.00
2018-07-04T00:27:52.696Z,72.30
2018-07-04T00:30:33.476Z,72.00
2018-07-04T00:33:13.994Z,72.70
2018-07-04T00:35:53.850Z,72.30
2018-07-04T00:38:33.738Z,71.80
2018-07-04T00:41:13.469Z,71.30
2018-07-04T00:43:53.442Z,72.20
2018-07-04T00:46:33.477Z,71.50
2018-07-04T00:49:13.277Z,71.50
2018-07-04T00:51:53.148Z,71.40
2018-07-04T00:54:32.934Z,71.10
2018-07-04T00:57:12.743Z,70.70
2018-07-04T00:59:52.708Z,70.70
2018-07-04T01:02:32.812Z,70.80
2018-07-04T01:05:12.673Z,70.40
2018-07-04T01:07:52.438Z,70.50
2018-07-04T01:10:32.292Z,70.50
2018-07-04T01:13:12.174Z,70.10
2018-07-04T01:15:51.900Z,70.40
2018-07-04T01:18:31.657Z,69.30
2018-07-04T01:21:12.396Z,69.40
2018-07-04T01:23:52.700Z,69.50
2018-07-04T01:26:33.298Z,70.50
2018-07-04T01:29:13.295Z,70.40
2018-07-04T01:31:53.196Z,70.60
2018-07-04T01:34:33.100Z,70.40
2018-07-04T01:37:12.797Z,70.80
2018-07-04T01:39:52.533Z,70.50
2018-07-04T01:42:32.342Z,71.20
2018-07-04T01:45:12.112Z,71.90
2018-07-04T01:47:51.762Z,72.10
2018-07-04T01:50:32.401Z,71.90
2018-07-04T01:53:12.249Z,71.20
2018-07-04T01:55:52.037Z,71.30
2018-07-04T01:58:31.821Z,71.80
2018-07-04T02:01:11.764Z,71.80
2018-07-04T02:03:51.803Z,72.90
2018-07-04T02:06:31.600Z,71.90
2018-07-04T02:09:11.381Z,72.90
2018-07-04T02:11:51.413Z,71.70
2018-07-04T02:14:31.213Z,72.70
2018-07-04T02:17:11.105Z,73.80
2018-07-04T02:19:51.007Z,72.70
2018-07-04T02:22:30.956Z,74.60
2018-07-04T02:25:10.717Z,73.60
2018-07-04T02:27:50.434Z,74.20
2018-07-04T02:30:31.405Z,73.30
2018-07-04T02:33:11.169Z,73.80
2018-07-04T02:35:51.111Z,73.80
2018-07-04T02:38:31.117Z,73.90
2018-07-04T02:41:10.819Z,73.40
2018-07-04T02:43:50.501Z,73.60
2018-07-04T02:46:35.729Z,74.60
2018-07-04T02:49:15.449Z,74.90
2018-07-04T02:51:55.481Z,74.20
2018-07-04T02:57:09.635Z,74.10
2018-07-04T02:59:49.549Z,74.70
2018-07-04T03:02:29.259Z,74.80
2018-07-04T03:05:09.077Z,74.90
2018-07-04T03:07:48.933Z,74.30
2018-07-04T03:10:29.736Z,74.90
2018-07-04T03:13:09.624Z,74.50
2018-07-04T03:15:49.342Z,74.60
2018-07-04T03:18:29.075Z,73.90
2018-07-04T03:21:08.885Z,73.70
2018-07-04T03:23:48.803Z,73.60
2018-07-04T03:26:28.698Z,74.90
2018-07-04T03:29:08.552Z,75.10
2018-07-04T03:31:48.485Z,75.60
2018-07-04T03:34:28.251Z,75.30
2018-07-04T03:37:08.168Z,76.00
2018-07-04T03:39:47.924Z,75.50
2018-07-04T03:42:27.907Z,75.00
2018-07-04T04:31:12.119Z,75.00
2018-07-04T04:33:51.889Z,74.80
2018-07-04T04:36:31.809Z,75.10
2018-07-04T04:39:11.654Z,76.40
2018-07-04T04:41:51.593Z,76.90
2018-07-04T04:44:31.556Z,75.00
2018-07-04T04:47:11.584Z,75.80
2018-07-04T04:49:51.332Z,77.30
2018-07-04T04:52:31.185Z,75.60
2018-07-04T04:55:11.261Z,73.80
2018-07-04T04:57:51.048Z,73.70
2018-07-04T05:00:31.987Z,74.50
2018-07-04T05:03:11.875Z,73.20
2018-07-04T05:05:51.656Z,72.80
2018-07-04T05:08:32.029Z,73.70
2018-07-04T05:11:11.903Z,77.70
2018-07-04T05:13:51.967Z,74.00
2018-07-04T05:16:31.766Z,76.60
2018-07-04T05:19:11.581Z,75.00
2018-07-04T05:21:51.307Z,76.70
2018-07-04T05:24:30.992Z,74.80
2018-07-04T05:27:11.206Z,73.90
2018-07-04T05:29:51.054Z,74.90
2018-07-04T05:32:30.843Z,74.50
2018-07-04T05:35:10.634Z,74.80
2018-07-04T05:37:50.500Z,75.80
2018-07-04T05:40:30.477Z,75.80
2018-07-04T05:43:10.321Z,75.30
2018-07-04T05:45:50.077Z,76.00
2018-07-04T05:48:29.776Z,75.50
2018-07-04T05:51:09.457Z,75.50
2018-07-04T05:53:49.130Z,76.50
2018-07-04T05:56:28.908Z,75.60
2018-07-04T05:59:08.690Z,76.10
2018-07-04T06:01:48.535Z,75.50
2018-07-04T06:04:28.358Z,75.60
2018-07-04T06:07:08.341Z,75.40
2018-07-04T06:09:48.309Z,75.50
2018-07-04T06:12:28.289Z,74.30
2018-07-04T06:15:08.434Z,75.20
2018-07-04T06:17:48.502Z,73.30
2018-07-04T06:20:28.409Z,72.50
2018-07-04T06:23:08.797Z,72.70
2018-07-04T06:25:48.673Z,72.40
2018-07-04T06:28:28.912Z,72.00
2018-07-04T06:31:08.669Z,70.90
2018-07-04T06:33:48.596Z,70.80
2018-07-04T06:36:28.587Z,70.40
2018-07-04T06:38:55.973Z,70.30
2018-07-04T06:43:50.960Z,70.30
2018-07-04T06:46:18.302Z,70.10
2018-07-04T06:48:45.692Z,70.10
2018-07-04T06:51:13.201Z,70.00
2018-07-04T06:53:40.543Z,69.90
2018-07-04T06:56:07.897Z,69.90
2018-07-04T06:58:35.271Z,69.50
2018-07-04T07:01:02.658Z,70.10
2018-07-04T07:03:42.420Z,69.70
2018-07-04T07:06:22.065Z,71.10
2018-07-04T07:09:01.920Z,69.70
2018-07-04T07:11:41.850Z,69.40
2018-07-04T07:14:21.703Z,69.20
2018-07-04T07:17:01.576Z,69.60
2018-07-04T07:19:42.080Z,69.80
2018-07-04T07:22:21.808Z,69.80
2018-07-04T07:25:01.692Z,69.60
2018-07-04T07:27:42.373Z,70.30
2018-07-04T07:30:22.237Z,69.90
2018-07-04T07:33:02.067Z,69.90
2018-07-04T07:35:41.804Z,71.00
2018-07-04T07:38:21.555Z,70.60
2018-07-04T07:41:02.336Z,69.90
2018-07-04T07:43:42.042Z,70.40
2018-07-04T07:46:22.112Z,70.60
2018-07-04T07:49:01.937Z,70.00
2018-07-04T07:54:15.425Z,69.20
2018-07-04T07:56:55.255Z,68.30
2018-07-04T07:59:35.067Z,68.30
2018-07-04T08:02:14.855Z,67.70
2018-07-04T08:04:54.605Z,67.00
2018-07-04T08:07:34.356Z,67.10
2018-07-04T08:10:14.155Z,66.80
2018-07-04T08:12:53.939Z,66.90
2018-07-04T08:15:33.642Z,67.10
2018-07-04T08:18:13.586Z,67.40
2018-07-04T08:20:53.462Z,66.50
2018-07-04T08:23:33.056Z,65.80
2018-07-04T08:26:12.937Z,66.20
2018-07-04T08:28:52.869Z,66.20
2018-07-04T08:31:32.862Z,66.40
2018-07-04T08:34:12.761Z,65.00
2018-07-04T08:36:52.550Z,65.90
2018-07-04T08:39:32.124Z,65.90
2018-07-04T08:42:12.024Z,64.90
2018-07-04T08:44:51.866Z,65.10
2018-07-04T08:47:31.683Z,63.50
2018-07-04T08:50:11.468Z,64.40
2018-07-04T08:52:51.481Z,62.50
2018-07-04T08:55:31.479Z,63.90
2018-07-04T08:58:11.309Z,65.00
2018-07-04T09:00:51.332Z,63.10
2018-07-04T09:03:31.053Z,62.40
2018-07-04T09:06:10.806Z,62.60
2018-07-04T09:08:50.607Z,62.50
2018-07-04T09:11:30.388Z,62.30
2018-07-04T09:14:10.156Z,63.00
2018-07-04T09:16:50.019Z,63.20
2018-07-04T09:19:29.868Z,63.80
2018-07-04T09:22:09.565Z,63.40
2018-07-04T09:24:49.427Z,62.90
2018-07-04T09:27:29.929Z,64.40
2018-07-04T09:30:09.752Z,64.50
2018-07-04T09:32:49.685Z,63.10
2018-07-04T09:35:29.659Z,63.70
2018-07-04T09:38:09.715Z,62.70
2018-07-04T09:40:50.503Z,62.60
2018-07-04T09:43:30.233Z,62.70
2018-07-04T09:46:10.182Z,63.80
2018-07-04T09:48:50.208Z,62.30
2018-07-04T09:51:30.051Z,62.60
2018-07-04T09:54:10.145Z,61.60
2018-07-04T09:56:50.072Z,61.10
2018-07-04T09:59:29.902Z,61.10
2018-07-04T10:02:09.881Z,61.80
2018-07-04T10:04:49.718Z,61.10
2018-07-04T10:07:29.549Z,59.80
2018-07-04T10:10:09.853Z,58.90
2018-07-04T10:12:49.758Z,56.40
2018-07-04T10:15:29.709Z,57.90
2018-07-04T10:18:09.930Z,59.00
2018-07-04T10:20:49.595Z,60.20
2018-07-04T10:23:29.550Z,58.60
2018-07-04T10:26:10.593Z,57.30
2018-07-04T10:28:50.535Z,58.30
2018-07-04T10:31:30.481Z,58.80
2018-07-04T10:34:10.285Z,56.40
2018-07-04T10:36:50.074Z,58.70
2018-07-04T10:39:29.824Z,57.80
2018-07-04T10:42:10.337Z,58.00
2018-07-04T10:44:50.154Z,59.20
2018-07-04T10:47:30.094Z,59.30
2018-07-04T10:50:10.006Z,59.10
2018-07-04T10:52:49.815Z,58.70
2018-07-04T10:55:29.650Z,57.70
2018-07-04T10:58:09.585Z,57.60
2018-07-04T11:00:50.310Z,57.60
2018-07-04T11:03:30.097Z,58.00
2018-07-04T11:06:10.030Z,58.20
2018-07-04T11:08:49.698Z,58.30
2018-07-04T11:11:29.531Z,57.70
2018-07-04T11:14:09.619Z,58.50
2018-07-04T11:16:49.464Z,58.70
2018-07-04T11:19:29.486Z,57.60
2018-07-04T11:22:09.245Z,58.30
2018-07-04T11:24:49.080Z,59.00
2018-07-04T11:27:29.028Z,57.70
2018-07-04T11:30:09.006Z,58.00
2018-07-04T11:32:48.769Z,58.20
2018-07-04T11:35:28.415Z,57.90
2018-07-04T11:38:08.098Z,58.10
2018-07-04T11:40:48.848Z,57.30
2018-07-04T11:43:28.845Z,58.20
2018-07-04T11:46:00.153Z,57.60
2018-07-04T11:48:27.932Z,58.00
2018-07-04T11:50:56.023Z,57.90
2018-07-04T11:53:23.429Z,57.30
2018-07-04T11:55:50.803Z,57.80
2018-07-04T11:58:18.185Z,57.40
2018-07-04T12:00:45.887Z,57.70
2018-07-04T12:05:57.635Z,59.20
2018-07-04T12:08:25.001Z,59.40
2018-07-04T12:10:53.800Z,59.30
2018-07-04T12:13:22.559Z,60.00
2018-07-04T12:15:50.789Z,59.40
2018-07-04T12:18:18.155Z,59.30
2018-07-04T12:23:13.964Z,59.90
2018-07-04T12:25:42.159Z,60.30
2018-07-04T12:28:09.477Z,60.40
2018-07-04T12:30:37.863Z,61.10
2018-07-04T12:33:05.190Z,61.30
2018-07-04T12:35:32.544Z,61.00
2018-07-04T12:37:59.907Z,60.90
2018-07-04T12:40:28.286Z,59.70
2018-07-04T12:42:55.769Z,60.10
2018-07-04T12:45:23.144Z,59.50
2018-07-04T12:47:50.514Z,60.50
2018-07-04T12:50:28.313Z,60.30
2018-07-04T12:52:55.828Z,60.00
2018-07-04T12:55:40.117Z,61.40
2018-07-04T12:58:20.645Z,62.40
2018-07-04T13:01:01.043Z,63.10
2018-07-04T13:03:40.950Z,64.20
2018-07-04T13:06:20.644Z,64.00
2018-07-04T13:09:01.068Z,63.70
2018-07-04T13:11:40.848Z,63.50
2018-07-04T13:14:20.560Z,62.80
2018-07-04T13:17:00.495Z,62.40
2018-07-04T13:19:40.330Z,63.00
2018-07-04T13:22:20.290Z,63.50
2018-07-04T13:25:00.128Z,64.50
2018-07-04T13:27:40.049Z,65.00
2018-07-04T13:30:20.950Z,65.50
2018-07-04T13:35:34.680Z,66.90
2018-07-04T13:38:14.441Z,66.50
2018-07-04T13:40:54.418Z,65.70
2018-07-04T13:43:34.439Z,64.90
2018-07-04T13:46:14.289Z,64.50
2018-07-04T13:48:54.129Z,64.50
2018-07-04T13:51:33.986Z,65.00
2018-07-04T13:54:13.941Z,65.60
2018-07-04T13:56:53.592Z,65.20
2018-07-04T13:59:33.581Z,64.90
2018-07-04T14:02:13.248Z,64.80
2018-07-04T14:04:53.107Z,65.80
2018-07-04T14:07:32.869Z,64.70
2018-07-04T14:10:12.747Z,66.00
2018-07-04T14:12:52.512Z,65.70
2018-07-04T14:15:32.418Z,63.90
2018-07-04T14:18:12.168Z,62.30
2018-07-04T14:20:51.957Z,62.80
2018-07-04T14:23:31.795Z,63.40
2018-07-04T14:26:11.296Z,62.90
2018-07-04T14:28:51.011Z,62.10
2018-07-04T14:31:30.768Z,61.70
2018-07-04T14:34:10.745Z,62.00
2018-07-04T14:36:50.614Z,61.40
2018-07-04T14:39:30.434Z,61.60
2018-07-04T14:42:10.253Z,60.80
2018-07-04T14:44:50.212Z,59.70
2018-07-04T14:47:30.201Z,57.70
2018-07-04T14:50:10.148Z,56.20
2018-07-04T14:52:49.989Z,57.70
2018-07-04T14:55:29.770Z,57.10
2018-07-04T16:20:19.186Z,56.80
2018-07-04T16:22:59.121Z,53.90
2018-07-04T16:25:38.745Z,52.50
2018-07-04T16:28:18.449Z,53.80
2018-07-04T16:30:58.430Z,54.80
2018-07-04T16:33:38.430Z,54.60
2018-07-04T16:36:18.242Z,54.70
2018-07-04T16:38:58.004Z,54.50
2018-07-04T16:41:37.735Z,54.70
2018-07-04T16:44:17.408Z,54.70
2018-07-04T16:46:57.137Z,54.50
2018-07-04T16:49:36.860Z,55.20
2018-07-04T16:52:16.612Z,56.70
2018-07-04T16:54:56.549Z,57.00
2018-07-04T16:57:36.432Z,58.30
2018-07-04T17:00:16.266Z,58.50
2018-07-04T17:02:56.042Z,59.00
2018-07-04T17:05:35.846Z,59.10
2018-07-04T17:08:15.884Z,59.20
2018-07-04T17:10:55.761Z,57.40
2018-07-04T17:13:35.501Z,58.20
2018-07-04T17:16:15.221Z,58.50
2018-07-04T17:21:28.672Z,57.80
2018-07-04T17:24:09.961Z,57.80
2018-07-04T17:26:49.682Z,58.30
2018-07-04T17:29:30.381Z,57.90
2018-07-04T17:32:10.046Z,57.90
2018-07-04T17:34:50.067Z,58.10
2018-07-04T17:37:29.864Z,58.30
2018-07-04T17:40:09.687Z,58.60
2018-07-04T17:42:49.488Z,59.00
2018-07-04T17:45:29.246Z,59.90
2018-07-04T17:48:08.943Z,59.40
2018-07-04T17:50:48.738Z,60.90
2018-07-04T17:53:28.525Z,61.00
2018-07-04T17:56:08.500Z,62.10
2018-07-04T18:01:22.361Z,62.20
2018-07-04T18:06:35.716Z,62.40
2018-07-04T18:09:15.685Z,62.10
2018-07-04T18:11:55.529Z,63.10
2018-07-04T18:14:35.461Z,63.10
2018-07-04T18:17:15.165Z,62.50
2018-07-04T18:19:54.851Z,62.80
2018-07-04T18:22:34.508Z,62.80
2018-07-04T18:25:14.314Z,63.50
2018-07-04T18:27:54.029Z,63.70
2018-07-04T18:30:33.807Z,63.50
2018-07-04T18:33:13.686Z,63.80
2018-07-04T18:35:53.522Z,64.00
2018-07-04T18:38:33.327Z,63.90
2018-07-04T18:41:13.034Z,63.80
2018-07-04T18:43:52.653Z,64.10
2018-07-04T18:46:32.569Z,64.40
2018-07-04T18:49:12.612Z,65.00
2018-07-04T18:51:52.591Z,64.90
2018-07-04T18:54:32.219Z,65.20
2018-07-04T18:57:12.681Z,65.20
2018-07-04T18:59:52.459Z,65.50
2018-07-04T19:02:32.208Z,65.70
2018-07-04T19:05:12.758Z,65.40
2018-07-04T19:07:52.542Z,65.10
2018-07-04T19:10:32.466Z,65.70
2018-07-04T19:13:12.179Z,65.10
2018-07-04T19:15:51.901Z,65.10
2018-07-04T19:18:31.767Z,65.30
2018-07-04T19:21:11.875Z,65.40
2018-07-04T19:23:51.665Z,65.00
2018-07-04T19:26:31.361Z,65.50
2018-07-04T19:29:11.369Z,65.00
2018-07-04T19:31:51.262Z,65.70
2018-07-04T19:34:31.073Z,65.40
2018-07-04T19:37:10.841Z,66.00
2018-07-04T19:39:50.736Z,65.80
2018-07-04T19:42:30.554Z,65.10
2018-07-04T19:45:10.515Z,65.60
2018-07-04T19:47:50.253Z,65.80
2018-07-04T19:50:30.015Z,65.00
2018-07-04T19:53:09.643Z,64.80
2018-07-04T19:55:49.337Z,64.90
2018-07-04T19:58:29.055Z,65.20
2018-07-04T20:01:08.967Z,65.50
2018-07-04T20:03:48.611Z,65.70
2018-07-04T20:06:28.458Z,65.80
2018-07-04T20:11:42.303Z,65.40
2018-07-04T20:14:22.259Z,65.60
2018-07-04T20:19:35.899Z,65.00
2018-07-04T20:22:15.551Z,65.00
2018-07-04T20:24:55.309Z,65.30
2018-07-04T20:27:35.310Z,65.40
2018-07-04T20:30:15.206Z,65.40
2018-07-04T20:32:54.856Z,66.20
2018-07-04T20:35:34.846Z,66.20
2018-07-04T20:38:14.747Z,66.20
2018-07-04T20:40:54.583Z,66.20
2018-07-04T20:43:34.523Z,66.40
2018-07-04T20:46:14.580Z,66.40
2018-07-04T20:48:54.580Z,66.20
2018-07-04T20:51:34.479Z,66.60
2018-07-04T20:54:14.204Z,66.50
2018-07-04T20:56:54.078Z,66.90
2018-07-04T20:59:34.128Z,66.70
2018-07-04T21:02:14.009Z,66.60
2018-07-04T21:04:54.080Z,66.60
2018-07-04T21:07:33.857Z,66.10
2018-07-04T21:12:47.366Z,66.60
2018-07-04T21:15:27.167Z,67.10
2018-07-04T21:18:07.143Z,67.00
2018-07-04T21:20:47.162Z,66.40
2018-07-04T21:23:26.828Z,66.40
2018-07-04T21:26:06.623Z,65.80
2018-07-04T21:28:46.356Z,65.90
2018-07-04T21:31:26.230Z,66.10
2018-07-04T21:34:06.109Z,65.20
2018-07-04T21:36:45.914Z,65.10
2018-07-04T21:39:25.585Z,65.80
2018-07-04T21:42:05.184Z,65.50
2018-07-04T21:44:44.901Z,64.60
2018-07-04T21:47:24.713Z,63.90
2018-07-04T21:50:04.577Z,63.80
2018-07-04T21:52:44.468Z,64.80
2018-07-04T21:55:24.291Z,64.50
2018-07-04T21:58:04.027Z,64.20
2018-07-04T22:00:43.912Z,63.60
2018-07-04T22:03:23.487Z,64.00
2018-07-04T22:06:03.420Z,63.50
2018-07-04T22:08:44.041Z,65.20
2018-07-04T22:11:23.754Z,64.80
2018-07-04T22:14:03.691Z,64.70
2018-07-04T22:16:43.632Z,64.10
2018-07-04T22:19:23.514Z,65.00
2018-07-04T22:22:03.247Z,65.50
2018-07-04T22:24:43.320Z,65.60
2018-07-04T22:27:23.097Z,65.70
2018-07-04T22:30:02.858Z,66.50
2018-07-04T22:32:43.280Z,66.70
2018-07-04T22:35:23.045Z,66.70
2018-07-04T22:38:02.793Z,66.70
2018-07-04T22:40:44.296Z,67.10
2018-07-04T22:43:24.144Z,67.10
2018-07-04T22:46:03.848Z,67.30
2018-07-04T22:48:43.634Z,67.40
2018-07-04T22:51:24.331Z,67.60
2018-07-04T22:54:04.112Z,67.80
2018-07-04T22:56:44.138Z,68.10
2018-07-04T22:59:24.122Z,68.50
2018-07-04T23:02:04.888Z,68.70
2018-07-04T23:04:44.696Z,70.40
2018-07-04T23:07:24.499Z,71.40
2018-07-04T23:10:04.398Z,71.70
2018-07-04T23:12:44.253Z,72.20
2018-07-04T23:15:23.980Z,70.90
2018-07-04T23:18:03.868Z,70.50
2018-07-04T23:20:44.739Z,70.60
2018-07-04T23:23:24.632Z,71.00
2018-07-04T23:26:04.550Z,70.80
2018-07-04T23:28:44.307Z,70.50
2018-07-04T23:31:24.129Z,70.90
2018-07-04T23:34:03.951Z,71.70
2018-07-04T23:36:45.042Z,71.40
2018-07-04T23:39:24.956Z,71.60
2018-07-04T23:42:04.711Z,71.20
2018-07-04T23:44:44.381Z,72.00
2018-07-04T23:47:24.296Z,73.50
2018-07-04T23:50:04.038Z,74.20
2018-07-04T23:52:44.014Z,74.00
2018-07-04T23:55:23.847Z,73.90
2018-07-04T23:58:03.587Z,72.50
